sensor_id;sensor_type;location;lat;lon;timestamp;P1;durP1;ratioP1;P2;durP2;ratioP2
82230;SDS011;71832;45.138;9.816;2023-10-08T00:00:48;80.47;;;39.10;;
82230;SDS011;71832;45.138;9.816;2023-10-08T00:03:19;84.15;;;40.28;;
82230;SDS011;71832;45.138;9.816;2023-10-08T00:05:48;82.10;;;39.35;;
82230;SDS011;71832;45.138;9.816;2023-10-08T00:08:17;75.55;;;35.90;;
82230;SDS011;71832;45.138;9.816;2023-10-08T00:10:46;79.10;;;39.35;;
82230;SDS011;71832;45.138;9.816;2023-10-08T00:13:15;84.93;;;40.13;;
82230;SDS011;71832;45.138;9.816;2023-10-08T00:15:44;81.82;;;40.00;;
82230;SDS011;71832;45.138;9.816;2023-10-08T00:18:20;80.47;;;40.13;;
82230;SDS011;71832;45.138;9.816;2023-10-08T00:20:49;81.78;;;37.75;;
82230;SDS011;71832;45.138;9.816;2023-10-08T00:23:36;87.82;;;41.53;;
82230;SDS011;71832;45.138;9.816;2023-10-08T00:26:08;84.22;;;40.15;;
82230;SDS011;71832;45.138;9.816;2023-10-08T00:28:36;77.35;;;37.22;;
82230;SDS011;71832;45.138;9.816;2023-10-08T00:31:07;82.55;;;39.17;;
82230;SDS011;71832;45.138;9.816;2023-10-08T00:33:44;73.20;;;37.20;;
82230;SDS011;71832;45.138;9.816;2023-10-08T00:36:12;77.50;;;37.40;;
82230;SDS011;71832;45.138;9.816;2023-10-08T00:38:45;80.22;;;39.63;;
82230;SDS011;71832;45.138;9.816;2023-10-08T00:41:32;82.30;;;38.50;;
82230;SDS011;71832;45.138;9.816;2023-10-08T00:43:59;79.95;;;39.92;;
82230;SDS011;71832;45.138;9.816;2023-10-08T00:46:27;73.07;;;36.63;;
82230;SDS011;71832;45.138;9.816;2023-10-08T00:49:01;74.82;;;35.70;;
82230;SDS011;71832;45.138;9.816;2023-10-08T00:51:49;68.43;;;34.33;;
82230;SDS011;71832;45.138;9.816;2023-10-08T00:54:26;73.22;;;35.47;;
82230;SDS011;71832;45.138;9.816;2023-10-08T00:56:59;71.80;;;35.58;;
82230;SDS011;71832;45.138;9.816;2023-10-08T00:59:31;77.50;;;35.80;;
82230;SDS011;71832;45.138;9.816;2023-10-08T01:02:11;88.25;;;39.28;;
82230;SDS011;71832;45.138;9.816;2023-10-08T01:04:45;81.90;;;37.42;;
82230;SDS011;71832;45.138;9.816;2023-10-08T01:07:16;75.82;;;36.92;;
82230;SDS011;71832;45.138;9.816;2023-10-08T01:09:45;82.40;;;36.63;;
82230;SDS011;71832;45.138;9.816;2023-10-08T01:12:20;76.65;;;38.40;;
82230;SDS011;71832;45.138;9.816;2023-10-08T01:14:48;78.57;;;35.35;;
82230;SDS011;71832;45.138;9.816;2023-10-08T01:17:19;71.25;;;35.45;;
82230;SDS011;71832;45.138;9.816;2023-10-08T01:19:57;73.47;;;36.60;;
82230;SDS011;71832;45.138;9.816;2023-10-08T01:22:35;75.60;;;36.00;;
82230;SDS011;71832;45.138;9.816;2023-10-08T01:25:04;82.90;;;37.95;;
82230;SDS011;71832;45.138;9.816;2023-10-08T01:27:36;73.82;;;35.22;;
82230;SDS011;71832;45.138;9.816;2023-10-08T01:30:05;70.35;;;34.85;;
82230;SDS011;71832;45.138;9.816;2023-10-08T01:32:43;79.72;;;37.25;;
82230;SDS011;71832;45.138;9.816;2023-10-08T01:35:11;76.63;;;37.10;;
82230;SDS011;71832;45.138;9.816;2023-10-08T01:37:58;74.93;;;36.03;;
82230;SDS011;71832;45.138;9.816;2023-10-08T01:40:26;74.30;;;36.17;;
82230;SDS011;71832;45.138;9.816;2023-10-08T01:42:55;77.18;;;38.05;;
82230;SDS011;71832;45.138;9.816;2023-10-08T01:45:30;80.25;;;38.63;;
82230;SDS011;71832;45.138;9.816;2023-10-08T01:47:59;76.22;;;35.58;;
82230;SDS011;71832;45.138;9.816;2023-10-08T01:50:28;75.00;;;36.95;;
82230;SDS011;71832;45.138;9.816;2023-10-08T01:52:56;77.80;;;38.45;;
82230;SDS011;71832;45.138;9.816;2023-10-08T01:55:26;81.35;;;37.85;;
82230;SDS011;71832;45.138;9.816;2023-10-08T01:57:59;72.40;;;35.25;;
82230;SDS011;71832;45.138;9.816;2023-10-08T02:00:29;74.38;;;35.33;;
82230;SDS011;71832;45.138;9.816;2023-10-08T02:02:58;78.75;;;37.33;;
82230;SDS011;71832;45.138;9.816;2023-10-08T02:05:27;74.18;;;36.08;;
82230;SDS011;71832;45.138;9.816;2023-10-08T02:07:56;75.10;;;37.45;;
82230;SDS011;71832;45.138;9.816;2023-10-08T02:10:25;69.65;;;34.85;;
82230;SDS011;71832;45.138;9.816;2023-10-08T02:12:54;80.70;;;39.50;;
82230;SDS011;71832;45.138;9.816;2023-10-08T02:15:23;84.03;;;39.83;;
82230;SDS011;71832;45.138;9.816;2023-10-08T02:17:52;80.18;;;37.17;;
82230;SDS011;71832;45.138;9.816;2023-10-08T02:20:21;82.72;;;40.17;;
82230;SDS011;71832;45.138;9.816;2023-10-08T02:22:49;82.43;;;37.22;;
82230;SDS011;71832;45.138;9.816;2023-10-08T02:25:19;87.45;;;39.72;;
82230;SDS011;71832;45.138;9.816;2023-10-08T02:27:49;82.13;;;38.63;;
82230;SDS011;71832;45.138;9.816;2023-10-08T02:30:18;78.93;;;37.85;;
82230;SDS011;71832;45.138;9.816;2023-10-08T02:32:46;78.82;;;37.70;;
82230;SDS011;71832;45.138;9.816;2023-10-08T02:35:15;79.65;;;37.25;;
82230;SDS011;71832;45.138;9.816;2023-10-08T02:37:44;85.82;;;38.55;;
82230;SDS011;71832;45.138;9.816;2023-10-08T02:40:14;82.63;;;40.00;;
82230;SDS011;71832;45.138;9.816;2023-10-08T02:42:52;84.85;;;37.88;;
82230;SDS011;71832;45.138;9.816;2023-10-08T02:45:25;87.38;;;39.33;;
82230;SDS011;71832;45.138;9.816;2023-10-08T02:47:55;91.32;;;41.97;;
82230;SDS011;71832;45.138;9.816;2023-10-08T02:50:24;98.55;;;43.30;;
82230;SDS011;71832;45.138;9.816;2023-10-08T02:52:53;98.72;;;44.30;;
82230;SDS011;71832;45.138;9.816;2023-10-08T02:55:28;95.43;;;42.80;;
82230;SDS011;71832;45.138;9.816;2023-10-08T03:00:28;92.60;;;41.53;;
82230;SDS011;71832;45.138;9.816;2023-10-08T03:05:35;100.85;;;42.67;;
82230;SDS011;71832;45.138;9.816;2023-10-08T03:08:04;98.78;;;44.40;;
82230;SDS011;71832;45.138;9.816;2023-10-08T03:10:52;95.30;;;43.15;;
82230;SDS011;71832;45.138;9.816;2023-10-08T03:13:21;89.68;;;41.08;;
82230;SDS011;71832;45.138;9.816;2023-10-08T03:15:51;88.57;;;40.13;;
82230;SDS011;71832;45.138;9.816;2023-10-08T03:18:28;93.10;;;41.88;;
82230;SDS011;71832;45.138;9.816;2023-10-08T03:21:03;95.15;;;42.17;;
82230;SDS011;71832;45.138;9.816;2023-10-08T03:23:47;91.82;;;40.65;;
82230;SDS011;71832;45.138;9.816;2023-10-08T03:26:16;83.82;;;39.45;;
82230;SDS011;71832;45.138;9.816;2023-10-08T03:29:04;82.10;;;40.08;;
82230;SDS011;71832;45.138;9.816;2023-10-08T03:31:34;79.45;;;38.42;;
82230;SDS011;71832;45.138;9.816;2023-10-08T03:34:22;83.85;;;38.47;;
82230;SDS011;71832;45.138;9.816;2023-10-08T03:36:53;85.18;;;39.28;;
82230;SDS011;71832;45.138;9.816;2023-10-08T03:42:25;85.60;;;40.10;;
82230;SDS011;71832;45.138;9.816;2023-10-08T03:45:06;92.07;;;41.67;;
82230;SDS011;71832;45.138;9.816;2023-10-08T03:47:37;95.40;;;41.65;;
82230;SDS011;71832;45.138;9.816;2023-10-08T03:50:11;88.20;;;39.67;;
82230;SDS011;71832;45.138;9.816;2023-10-08T03:52:43;91.32;;;41.85;;
82230;SDS011;71832;45.138;9.816;2023-10-08T03:55:10;87.78;;;41.80;;
82230;SDS011;71832;45.138;9.816;2023-10-08T03:57:47;87.28;;;40.13;;
82230;SDS011;71832;45.138;9.816;2023-10-08T04:00:22;87.78;;;41.13;;
82230;SDS011;71832;45.138;9.816;2023-10-08T04:02:58;93.40;;;40.63;;
82230;SDS011;71832;45.138;9.816;2023-10-08T04:05:29;87.53;;;39.40;;
82230;SDS011;71832;45.138;9.816;2023-10-08T04:08:07;82.97;;;37.53;;
82230;SDS011;71832;45.138;9.816;2023-10-08T04:10:54;76.97;;;35.45;;
82230;SDS011;71832;45.138;9.816;2023-10-08T04:13:34;78.85;;;35.45;;
82230;SDS011;71832;45.138;9.816;2023-10-08T04:16:10;73.70;;;33.75;;
82230;SDS011;71832;45.138;9.816;2023-10-08T04:18:37;76.78;;;36.45;;
82230;SDS011;71832;45.138;9.816;2023-10-08T04:21:06;71.18;;;34.70;;
82230;SDS011;71832;45.138;9.816;2023-10-08T04:23:39;75.45;;;34.53;;
82230;SDS011;71832;45.138;9.816;2023-10-08T04:26:10;73.47;;;34.90;;
82230;SDS011;71832;45.138;9.816;2023-10-08T04:28:38;72.88;;;34.10;;
82230;SDS011;71832;45.138;9.816;2023-10-08T04:31:07;70.40;;;34.08;;
82230;SDS011;71832;45.138;9.816;2023-10-08T04:33:50;72.65;;;32.33;;
82230;SDS011;71832;45.138;9.816;2023-10-08T04:36:19;72.18;;;33.15;;
82230;SDS011;71832;45.138;9.816;2023-10-08T04:38:48;71.10;;;31.83;;
82230;SDS011;71832;45.138;9.816;2023-10-08T04:41:22;61.30;;;31.48;;
82230;SDS011;71832;45.138;9.816;2023-10-08T04:43:54;68.38;;;31.77;;
82230;SDS011;71832;45.138;9.816;2023-10-08T04:46:22;68.57;;;32.13;;
82230;SDS011;71832;45.138;9.816;2023-10-08T04:49:10;67.47;;;32.15;;
82230;SDS011;71832;45.138;9.816;2023-10-08T04:51:53;68.15;;;31.85;;
82230;SDS011;71832;45.138;9.816;2023-10-08T04:54:24;65.75;;;31.33;;
82230;SDS011;71832;45.138;9.816;2023-10-08T04:56:56;67.03;;;31.13;;
82230;SDS011;71832;45.138;9.816;2023-10-08T04:59:26;70.22;;;32.80;;
82230;SDS011;71832;45.138;9.816;2023-10-08T05:02:00;64.68;;;31.10;;
82230;SDS011;71832;45.138;9.816;2023-10-08T05:04:45;70.20;;;31.77;;
82230;SDS011;71832;45.138;9.816;2023-10-08T05:07:19;67.35;;;31.63;;
82230;SDS011;71832;45.138;9.816;2023-10-08T05:09:52;68.78;;;32.13;;
82230;SDS011;71832;45.138;9.816;2023-10-08T05:12:40;63.65;;;32.35;;
82230;SDS011;71832;45.138;9.816;2023-10-08T05:15:16;64.97;;;30.40;;
82230;SDS011;71832;45.138;9.816;2023-10-08T05:17:59;63.33;;;30.48;;
82230;SDS011;71832;45.138;9.816;2023-10-08T05:20:46;65.32;;;32.00;;
82230;SDS011;71832;45.138;9.816;2023-10-08T05:23:15;68.18;;;31.35;;
82230;SDS011;71832;45.138;9.816;2023-10-08T05:25:53;64.45;;;30.33;;
82230;SDS011;71832;45.138;9.816;2023-10-08T05:28:24;66.50;;;30.67;;
82230;SDS011;71832;45.138;9.816;2023-10-08T05:30:53;66.03;;;31.80;;
82230;SDS011;71832;45.138;9.816;2023-10-08T05:33:40;68.35;;;31.45;;
82230;SDS011;71832;45.138;9.816;2023-10-08T05:36:27;65.63;;;30.67;;
82230;SDS011;71832;45.138;9.816;2023-10-08T05:39:15;68.82;;;32.55;;
82230;SDS011;71832;45.138;9.816;2023-10-08T05:42:02;72.80;;;32.35;;
82230;SDS011;71832;45.138;9.816;2023-10-08T05:44:40;66.25;;;30.95;;
82230;SDS011;71832;45.138;9.816;2023-10-08T05:47:13;59.42;;;30.60;;
82230;SDS011;71832;45.138;9.816;2023-10-08T05:50:00;68.78;;;32.80;;
82230;SDS011;71832;45.138;9.816;2023-10-08T05:52:47;74.00;;;34.30;;
82230;SDS011;71832;45.138;9.816;2023-10-08T05:55:28;71.53;;;32.22;;
82230;SDS011;71832;45.138;9.816;2023-10-08T05:58:13;71.30;;;32.20;;
82230;SDS011;71832;45.138;9.816;2023-10-08T06:00:46;69.50;;;32.65;;
82230;SDS011;71832;45.138;9.816;2023-10-08T06:03:15;69.88;;;32.92;;
82230;SDS011;71832;45.138;9.816;2023-10-08T06:06:04;69.10;;;33.65;;
82230;SDS011;71832;45.138;9.816;2023-10-08T06:08:48;74.80;;;34.25;;
82230;SDS011;71832;45.138;9.816;2023-10-08T06:11:18;71.05;;;32.95;;
82230;SDS011;71832;45.138;9.816;2023-10-08T06:14:06;73.40;;;34.40;;
82230;SDS011;71832;45.138;9.816;2023-10-08T06:16:54;76.65;;;34.33;;
82230;SDS011;71832;45.138;9.816;2023-10-08T06:19:41;68.30;;;32.85;;
82230;SDS011;71832;45.138;9.816;2023-10-08T06:22:10;70.47;;;33.53;;
82230;SDS011;71832;45.138;9.816;2023-10-08T06:24:39;78.72;;;36.53;;
82230;SDS011;71832;45.138;9.816;2023-10-08T06:27:08;70.75;;;33.28;;
82230;SDS011;71832;45.138;9.816;2023-10-08T06:29:42;77.47;;;34.80;;
82230;SDS011;71832;45.138;9.816;2023-10-08T06:32:10;75.65;;;34.28;;
82230;SDS011;71832;45.138;9.816;2023-10-08T06:34:39;77.18;;;35.13;;
82230;SDS011;71832;45.138;9.816;2023-10-08T06:37:07;73.40;;;34.45;;
82230;SDS011;71832;45.138;9.816;2023-10-08T06:39:36;69.80;;;32.72;;
82230;SDS011;71832;45.138;9.816;2023-10-08T06:42:16;71.20;;;33.35;;
82230;SDS011;71832;45.138;9.816;2023-10-08T06:44:46;75.32;;;33.35;;
82230;SDS011;71832;45.138;9.816;2023-10-08T06:47:14;75.85;;;34.00;;
82230;SDS011;71832;45.138;9.816;2023-10-08T06:49:44;86.18;;;36.35;;
82230;SDS011;71832;45.138;9.816;2023-10-08T06:52:13;81.38;;;37.30;;
82230;SDS011;71832;45.138;9.816;2023-10-08T06:54:44;76.15;;;34.50;;
82230;SDS011;71832;45.138;9.816;2023-10-08T06:57:13;73.95;;;35.35;;
82230;SDS011;71832;45.138;9.816;2023-10-08T06:59:46;80.93;;;36.15;;
82230;SDS011;71832;45.138;9.816;2023-10-08T07:02:16;78.60;;;35.50;;
82230;SDS011;71832;45.138;9.816;2023-10-08T07:04:45;74.95;;;35.42;;
82230;SDS011;71832;45.138;9.816;2023-10-08T07:07:13;73.05;;;35.10;;
82230;SDS011;71832;45.138;9.816;2023-10-08T07:09:44;84.22;;;38.17;;
82230;SDS011;71832;45.138;9.816;2023-10-08T07:12:14;79.22;;;35.92;;
82230;SDS011;71832;45.138;9.816;2023-10-08T07:14:43;78.15;;;36.30;;
82230;SDS011;71832;45.138;9.816;2023-10-08T07:17:12;74.75;;;35.72;;
82230;SDS011;71832;45.138;9.816;2023-10-08T07:19:45;75.47;;;34.90;;
82230;SDS011;71832;45.138;9.816;2023-10-08T07:22:16;77.20;;;35.20;;
82230;SDS011;71832;45.138;9.816;2023-10-08T07:24:48;71.18;;;34.22;;
82230;SDS011;71832;45.138;9.816;2023-10-08T07:27:18;75.72;;;34.78;;
82230;SDS011;71832;45.138;9.816;2023-10-08T07:29:50;75.18;;;35.25;;
82230;SDS011;71832;45.138;9.816;2023-10-08T07:34:51;70.03;;;33.63;;
82230;SDS011;71832;45.138;9.816;2023-10-08T07:37:23;66.72;;;32.50;;
82230;SDS011;71832;45.138;9.816;2023-10-08T07:39:52;69.07;;;33.05;;
82230;SDS011;71832;45.138;9.816;2023-10-08T07:42:21;75.57;;;34.83;;
82230;SDS011;71832;45.138;9.816;2023-10-08T07:44:50;72.03;;;34.30;;
82230;SDS011;71832;45.138;9.816;2023-10-08T07:47:20;65.43;;;33.25;;
82230;SDS011;71832;45.138;9.816;2023-10-08T07:49:49;67.60;;;34.15;;
82230;SDS011;71832;45.138;9.816;2023-10-08T07:52:18;66.75;;;34.28;;
82230;SDS011;71832;45.138;9.816;2023-10-08T07:54:47;75.07;;;34.15;;
82230;SDS011;71832;45.138;9.816;2023-10-08T07:57:16;71.53;;;33.13;;
82230;SDS011;71832;45.138;9.816;2023-10-08T07:59:51;65.93;;;31.42;;
82230;SDS011;71832;45.138;9.816;2023-10-08T08:02:21;63.28;;;31.60;;
82230;SDS011;71832;45.138;9.816;2023-10-08T08:04:50;62.90;;;31.25;;
82230;SDS011;71832;45.138;9.816;2023-10-08T08:07:20;56.72;;;30.08;;
82230;SDS011;71832;45.138;9.816;2023-10-08T08:09:49;55.45;;;29.02;;
82230;SDS011;71832;45.138;9.816;2023-10-08T08:12:24;56.50;;;29.05;;
82230;SDS011;71832;45.138;9.816;2023-10-08T08:14:54;56.88;;;27.83;;
82230;SDS011;71832;45.138;9.816;2023-10-08T08:17:22;57.55;;;27.27;;
82230;SDS011;71832;45.138;9.816;2023-10-08T08:19:51;48.92;;;24.83;;
82230;SDS011;71832;45.138;9.816;2023-10-08T08:22:20;49.10;;;24.23;;
82230;SDS011;71832;45.138;9.816;2023-10-08T08:24:50;54.85;;;23.92;;
82230;SDS011;71832;45.138;9.816;2023-10-08T08:27:21;42.28;;;21.00;;
82230;SDS011;71832;45.138;9.816;2023-10-08T08:29:51;40.38;;;21.52;;
82230;SDS011;71832;45.138;9.816;2023-10-08T08:34:50;41.42;;;20.08;;
82230;SDS011;71832;45.138;9.816;2023-10-08T08:37:19;47.58;;;22.27;;
82230;SDS011;71832;45.138;9.816;2023-10-08T08:39:48;50.95;;;22.85;;
82230;SDS011;71832;45.138;9.816;2023-10-08T08:42:17;45.53;;;22.73;;
82230;SDS011;71832;45.138;9.816;2023-10-08T08:44:49;50.72;;;26.30;;
82230;SDS011;71832;45.138;9.816;2023-10-08T08:47:19;47.13;;;25.23;;
82230;SDS011;71832;45.138;9.816;2023-10-08T08:49:50;50.25;;;25.77;;
82230;SDS011;71832;45.138;9.816;2023-10-08T08:52:21;52.72;;;26.33;;
82230;SDS011;71832;45.138;9.816;2023-10-08T08:54:50;53.75;;;26.88;;
82230;SDS011;71832;45.138;9.816;2023-10-08T08:57:18;50.72;;;25.75;;
82230;SDS011;71832;45.138;9.816;2023-10-08T08:59:56;51.97;;;27.05;;
82230;SDS011;71832;45.138;9.816;2023-10-08T09:02:26;54.97;;;27.05;;
82230;SDS011;71832;45.138;9.816;2023-10-08T09:04:54;53.67;;;27.58;;
82230;SDS011;71832;45.138;9.816;2023-10-08T09:07:23;53.00;;;29.48;;
82230;SDS011;71832;45.138;9.816;2023-10-08T09:09:52;51.22;;;28.00;;
82230;SDS011;71832;45.138;9.816;2023-10-08T09:12:26;58.80;;;29.92;;
82230;SDS011;71832;45.138;9.816;2023-10-08T09:14:59;53.50;;;27.60;;
82230;SDS011;71832;45.138;9.816;2023-10-08T09:17:29;53.45;;;29.25;;
82230;SDS011;71832;45.138;9.816;2023-10-08T09:19:59;53.28;;;28.98;;
82230;SDS011;71832;45.138;9.816;2023-10-08T09:22:32;55.70;;;29.77;;
82230;SDS011;71832;45.138;9.816;2023-10-08T09:25:01;51.92;;;27.92;;
82230;SDS011;71832;45.138;9.816;2023-10-08T09:27:33;52.35;;;27.80;;
82230;SDS011;71832;45.138;9.816;2023-10-08T09:30:04;57.88;;;29.48;;
82230;SDS011;71832;45.138;9.816;2023-10-08T09:32:34;53.47;;;27.67;;
82230;SDS011;71832;45.138;9.816;2023-10-08T09:35:09;50.25;;;25.95;;
82230;SDS011;71832;45.138;9.816;2023-10-08T09:37:39;51.53;;;26.83;;
82230;SDS011;71832;45.138;9.816;2023-10-08T09:40:10;46.13;;;25.48;;
82230;SDS011;71832;45.138;9.816;2023-10-08T09:42:46;40.50;;;21.13;;
82230;SDS011;71832;45.138;9.816;2023-10-08T09:45:16;39.38;;;21.45;;
82230;SDS011;71832;45.138;9.816;2023-10-08T09:47:49;38.95;;;20.65;;
82230;SDS011;71832;45.138;9.816;2023-10-08T09:50:22;36.88;;;20.98;;
82230;SDS011;71832;45.138;9.816;2023-10-08T09:53:07;37.05;;;20.95;;
82230;SDS011;71832;45.138;9.816;2023-10-08T09:55:44;40.13;;;21.58;;
82230;SDS011;71832;45.138;9.816;2023-10-08T09:58:14;39.47;;;21.23;;
82230;SDS011;71832;45.138;9.816;2023-10-08T10:00:43;44.20;;;23.63;;
82230;SDS011;71832;45.138;9.816;2023-10-08T10:05:44;42.53;;;21.95;;
82230;SDS011;71832;45.138;9.816;2023-10-08T10:08:14;40.58;;;22.95;;
82230;SDS011;71832;45.138;9.816;2023-10-08T10:10:41;40.75;;;21.95;;
82230;SDS011;71832;45.138;9.816;2023-10-08T10:13:14;43.00;;;24.23;;
82230;SDS011;71832;45.138;9.816;2023-10-08T10:15:44;43.75;;;24.42;;
82230;SDS011;71832;45.138;9.816;2023-10-08T10:18:16;44.25;;;23.08;;
82230;SDS011;71832;45.138;9.816;2023-10-08T10:20:52;38.60;;;21.75;;
82230;SDS011;71832;45.138;9.816;2023-10-08T10:23:47;44.20;;;23.35;;
82230;SDS011;71832;45.138;9.816;2023-10-08T10:29:17;41.10;;;22.60;;
82230;SDS011;71832;45.138;9.816;2023-10-08T10:31:48;36.63;;;21.05;;
82230;SDS011;71832;45.138;9.816;2023-10-08T10:34:24;41.78;;;23.33;;
82230;SDS011;71832;45.138;9.816;2023-10-08T10:36:55;38.20;;;20.58;;
82230;SDS011;71832;45.138;9.816;2023-10-08T10:39:28;35.03;;;19.30;;
82230;SDS011;71832;45.138;9.816;2023-10-08T10:42:00;33.63;;;18.25;;
82230;SDS011;71832;45.138;9.816;2023-10-08T10:44:32;32.92;;;18.10;;
82230;SDS011;71832;45.138;9.816;2023-10-08T10:47:04;28.80;;;16.70;;
82230;SDS011;71832;45.138;9.816;2023-10-08T10:49:41;30.33;;;15.80;;
82230;SDS011;71832;45.138;9.816;2023-10-08T10:52:30;29.35;;;15.23;;
82230;SDS011;71832;45.138;9.816;2023-10-08T10:55:10;31.65;;;14.75;;
82230;SDS011;71832;45.138;9.816;2023-10-08T10:57:40;23.45;;;13.35;;
82230;SDS011;71832;45.138;9.816;2023-10-08T11:00:10;22.35;;;13.05;;
82230;SDS011;71832;45.138;9.816;2023-10-08T11:02:58;22.75;;;12.35;;
82230;SDS011;71832;45.138;9.816;2023-10-08T11:05:29;22.92;;;13.35;;
82230;SDS011;71832;45.138;9.816;2023-10-08T11:08:03;23.13;;;12.93;;
82230;SDS011;71832;45.138;9.816;2023-10-08T11:10:35;25.58;;;12.73;;
82230;SDS011;71832;45.138;9.816;2023-10-08T11:13:06;23.27;;;11.77;;
82230;SDS011;71832;45.138;9.816;2023-10-08T11:15:45;21.17;;;11.52;;
82230;SDS011;71832;45.138;9.816;2023-10-08T11:18:19;22.45;;;11.65;;
82230;SDS011;71832;45.138;9.816;2023-10-08T11:20:49;20.42;;;11.18;;
82230;SDS011;71832;45.138;9.816;2023-10-08T11:23:37;20.77;;;9.77;;
82230;SDS011;71832;45.138;9.816;2023-10-08T11:26:08;15.55;;;10.20;;
82230;SDS011;71832;45.138;9.816;2023-10-08T11:28:38;16.85;;;9.05;;
82230;SDS011;71832;45.138;9.816;2023-10-08T11:31:10;16.48;;;10.07;;
82230;SDS011;71832;45.138;9.816;2023-10-08T11:33:40;15.48;;;9.25;;
82230;SDS011;71832;45.138;9.816;2023-10-08T11:36:27;20.48;;;10.43;;
82230;SDS011;71832;45.138;9.816;2023-10-08T11:38:56;18.05;;;10.57;;
82230;SDS011;71832;45.138;9.816;2023-10-08T11:41:37;16.70;;;9.68;;
82230;SDS011;71832;45.138;9.816;2023-10-08T11:44:25;17.27;;;9.15;;
82230;SDS011;71832;45.138;9.816;2023-10-08T11:46:56;18.95;;;10.35;;
82230;SDS011;71832;45.138;9.816;2023-10-08T11:49:37;18.15;;;10.18;;
82230;SDS011;71832;45.138;9.816;2023-10-08T11:52:13;18.95;;;9.75;;
82230;SDS011;71832;45.138;9.816;2023-10-08T11:54:42;20.95;;;9.23;;
82230;SDS011;71832;45.138;9.816;2023-10-08T11:57:14;15.77;;;9.80;;
82230;SDS011;71832;45.138;9.816;2023-10-08T11:59:47;19.25;;;10.02;;
82230;SDS011;71832;45.138;9.816;2023-10-08T12:02:20;17.73;;;10.02;;
82230;SDS011;71832;45.138;9.816;2023-10-08T12:04:48;18.75;;;9.32;;
82230;SDS011;71832;45.138;9.816;2023-10-08T12:07:17;15.90;;;9.02;;
82230;SDS011;71832;45.138;9.816;2023-10-08T12:09:46;20.80;;;9.60;;
82230;SDS011;71832;45.138;9.816;2023-10-08T12:12:14;18.10;;;9.60;;
82230;SDS011;71832;45.138;9.816;2023-10-08T12:14:48;18.20;;;9.52;;
82230;SDS011;71832;45.138;9.816;2023-10-08T12:17:20;19.33;;;9.43;;
82230;SDS011;71832;45.138;9.816;2023-10-08T12:20:03;16.80;;;8.27;;
82230;SDS011;71832;45.138;9.816;2023-10-08T12:22:38;17.38;;;9.30;;
82230;SDS011;71832;45.138;9.816;2023-10-08T12:25:07;20.00;;;8.95;;
82230;SDS011;71832;45.138;9.816;2023-10-08T12:27:35;17.13;;;9.32;;
82230;SDS011;71832;45.138;9.816;2023-10-08T12:30:04;21.15;;;9.55;;
82230;SDS011;71832;45.138;9.816;2023-10-08T12:32:36;16.33;;;9.85;;
82230;SDS011;71832;45.138;9.816;2023-10-08T12:35:08;16.55;;;8.80;;
82230;SDS011;71832;45.138;9.816;2023-10-08T12:37:39;15.27;;;8.75;;
82230;SDS011;71832;45.138;9.816;2023-10-08T12:40:09;16.73;;;8.68;;
82230;SDS011;71832;45.138;9.816;2023-10-08T12:42:38;16.73;;;8.52;;
82230;SDS011;71832;45.138;9.816;2023-10-08T12:45:09;24.00;;;9.00;;
82230;SDS011;71832;45.138;9.816;2023-10-08T12:47:38;14.77;;;8.13;;
82230;SDS011;71832;45.138;9.816;2023-10-08T12:50:07;21.00;;;9.25;;
82230;SDS011;71832;45.138;9.816;2023-10-08T12:52:42;19.33;;;9.60;;
82230;SDS011;71832;45.138;9.816;2023-10-08T12:55:19;22.48;;;9.48;;
82230;SDS011;71832;45.138;9.816;2023-10-08T12:57:52;22.70;;;9.25;;
82230;SDS011;71832;45.138;9.816;2023-10-08T13:00:22;19.95;;;9.13;;
82230;SDS011;71832;45.138;9.816;2023-10-08T13:02:51;26.27;;;9.43;;
82230;SDS011;71832;45.138;9.816;2023-10-08T13:05:21;19.60;;;9.40;;
82230;SDS011;71832;45.138;9.816;2023-10-08T13:07:54;24.10;;;9.77;;
82230;SDS011;71832;45.138;9.816;2023-10-08T13:10:23;16.92;;;8.40;;
82230;SDS011;71832;45.138;9.816;2023-10-08T13:12:52;19.23;;;8.10;;
82230;SDS011;71832;45.138;9.816;2023-10-08T13:15:23;18.05;;;8.15;;
82230;SDS011;71832;45.138;9.816;2023-10-08T13:17:52;16.13;;;7.82;;
82230;SDS011;71832;45.138;9.816;2023-10-08T13:20:19;17.33;;;7.95;;
82230;SDS011;71832;45.138;9.816;2023-10-08T13:22:49;26.00;;;8.73;;
82230;SDS011;71832;45.138;9.816;2023-10-08T13:25:16;17.20;;;7.40;;
82230;SDS011;71832;45.138;9.816;2023-10-08T13:27:46;23.80;;;8.40;;
82230;SDS011;71832;45.138;9.816;2023-10-08T13:30:15;19.88;;;7.95;;
82230;SDS011;71832;45.138;9.816;2023-10-08T13:32:44;16.10;;;7.40;;
82230;SDS011;71832;45.138;9.816;2023-10-08T13:35:13;15.65;;;7.07;;
82230;SDS011;71832;45.138;9.816;2023-10-08T13:37:41;16.08;;;7.22;;
82230;SDS011;71832;45.138;9.816;2023-10-08T13:40:10;13.32;;;7.28;;
82230;SDS011;71832;45.138;9.816;2023-10-08T13:45:09;14.23;;;6.13;;
82230;SDS011;71832;45.138;9.816;2023-10-08T13:47:52;13.70;;;6.60;;
82230;SDS011;71832;45.138;9.816;2023-10-08T13:50:22;12.82;;;5.70;;
82230;SDS011;71832;45.138;9.816;2023-10-08T13:52:50;16.00;;;6.50;;
82230;SDS011;71832;45.138;9.816;2023-10-08T13:55:19;13.73;;;6.68;;
82230;SDS011;71832;45.138;9.816;2023-10-08T13:57:51;14.73;;;6.78;;
82230;SDS011;71832;45.138;9.816;2023-10-08T14:00:20;10.85;;;6.07;;
82230;SDS011;71832;45.138;9.816;2023-10-08T14:02:52;15.13;;;6.65;;
82230;SDS011;71832;45.138;9.816;2023-10-08T14:05:21;12.75;;;6.18;;
82230;SDS011;71832;45.138;9.816;2023-10-08T14:07:50;17.90;;;6.90;;
82230;SDS011;71832;45.138;9.816;2023-10-08T14:10:19;15.00;;;6.60;;
82230;SDS011;71832;45.138;9.816;2023-10-08T14:12:55;11.73;;;5.65;;
82230;SDS011;71832;45.138;9.816;2023-10-08T14:15:27;19.17;;;6.80;;
82230;SDS011;71832;45.138;9.816;2023-10-08T14:17:58;14.73;;;5.68;;
82230;SDS011;71832;45.138;9.816;2023-10-08T14:20:31;16.27;;;6.80;;
82230;SDS011;71832;45.138;9.816;2023-10-08T14:22:59;15.35;;;6.60;;
82230;SDS011;71832;45.138;9.816;2023-10-08T14:25:30;15.50;;;6.20;;
82230;SDS011;71832;45.138;9.816;2023-10-08T14:28:00;13.93;;;5.53;;
82230;SDS011;71832;45.138;9.816;2023-10-08T14:30:33;16.10;;;5.97;;
82230;SDS011;71832;45.138;9.816;2023-10-08T14:33:07;12.98;;;5.72;;
82230;SDS011;71832;45.138;9.816;2023-10-08T14:35:39;12.57;;;5.40;;
82230;SDS011;71832;45.138;9.816;2023-10-08T14:38:26;13.80;;;6.25;;
82230;SDS011;71832;45.138;9.816;2023-10-08T14:41:14;10.02;;;5.25;;
82230;SDS011;71832;45.138;9.816;2023-10-08T14:44:01;12.13;;;5.38;;
82230;SDS011;71832;45.138;9.816;2023-10-08T14:46:30;12.00;;;5.35;;
82230;SDS011;71832;45.138;9.816;2023-10-08T14:49:02;15.68;;;5.80;;
82230;SDS011;71832;45.138;9.816;2023-10-08T14:51:35;18.10;;;5.53;;
82230;SDS011;71832;45.138;9.816;2023-10-08T14:54:06;12.80;;;5.63;;
82230;SDS011;71832;45.138;9.816;2023-10-08T14:56:35;11.18;;;5.97;;
82230;SDS011;71832;45.138;9.816;2023-10-08T14:59:05;12.60;;;6.03;;
82230;SDS011;71832;45.138;9.816;2023-10-08T15:01:33;16.70;;;6.13;;
82230;SDS011;71832;45.138;9.816;2023-10-08T15:04:02;14.55;;;5.50;;
82230;SDS011;71832;45.138;9.816;2023-10-08T15:06:31;12.70;;;5.72;;
82230;SDS011;71832;45.138;9.816;2023-10-08T15:09:00;14.43;;;5.65;;
82230;SDS011;71832;45.138;9.816;2023-10-08T15:11:29;14.90;;;5.53;;
82230;SDS011;71832;45.138;9.816;2023-10-08T15:13:58;14.38;;;5.70;;
82230;SDS011;71832;45.138;9.816;2023-10-08T15:16:26;14.80;;;5.90;;